createdAt,value
2022-12-15T00:01:33.428Z,32
2022-12-15T00:04:04.669Z,31
2022-12-15T00:06:35.306Z,28
2022-12-15T00:09:09.774Z,28
2022-12-15T00:11:36.913Z,28
2022-12-15T00:14:07.781Z,28
2022-12-15T00:16:38.171Z,30
2022-12-15T00:19:09.086Z,28
2022-12-15T00:21:39.362Z,28
2022-12-15T00:24:10.700Z,28
2022-12-15T00:26:41.381Z,28
2022-12-15T00:29:12.169Z,27
2022-12-15T00:31:43.580Z,28
2022-12-15T00:34:14.604Z,28
2022-12-15T00:36:45.506Z,31
2022-12-15T00:39:16.673Z,28
2022-12-15T00:41:47.093Z,25
2022-12-15T00:44:20.696Z,26
2022-12-15T00:46:48.974Z,26
2022-12-15T00:49:19.756Z,22
2022-12-15T00:51:51.460Z,24
2022-12-15T00:54:22.618Z,28
2022-12-15T00:56:53.355Z,25
2022-12-15T00:59:25.102Z,25
2022-12-15T01:01:57.566Z,28
2022-12-15T01:04:27.588Z,24
2022-12-15T01:06:58.373Z,25
2022-12-15T01:09:30.499Z,27
2022-12-15T01:12:02.856Z,20
2022-12-15T01:14:33.795Z,28
2022-12-15T01:17:05.437Z,32
2022-12-15T01:19:35.869Z,21
2022-12-15T01:22:06.959Z,24
2022-12-15T01:24:37.758Z,24
2022-12-15T01:27:08.077Z,24
2022-12-15T01:29:38.680Z,24
2022-12-15T01:32:09.980Z,21
2022-12-15T01:34:41.452Z,24
2022-12-15T01:37:12.522Z,23
2022-12-15T01:39:43.366Z,20
2022-12-15T01:42:14.354Z,24
2022-12-15T01:44:45.385Z,24
2022-12-15T01:47:16.536Z,20
2022-12-15T01:49:46.618Z,24
2022-12-15T01:52:17.011Z,24
2022-12-15T01:54:48.639Z,24
2022-12-15T01:57:19.505Z,24
2022-12-15T01:59:50.260Z,23
2022-12-15T02:02:21.106Z,24
2022-12-15T02:04:51.951Z,24
2022-12-15T02:07:21.244Z,24
2022-12-15T02:09:51.345Z,21
2022-12-15T02:12:23.444Z,24
2022-12-15T02:14:55.745Z,23
2022-12-15T02:17:26.590Z,24
2022-12-15T02:19:57.294Z,24
2022-12-15T02:22:28.441Z,20
2022-12-15T02:24:59.158Z,20
2022-12-15T02:27:31.386Z,20
2022-12-15T02:30:01.808Z,19
2022-12-15T02:32:33.040Z,20
2022-12-15T02:35:04.689Z,24
2022-12-15T02:37:35.500Z,24
2022-12-15T02:40:06.406Z,24
2022-12-15T02:42:37.349Z,21
2022-12-15T02:45:06.321Z,20
2022-12-15T02:47:37.450Z,16
2022-12-15T02:50:08.228Z,20
2022-12-15T02:52:39.160Z,20
2022-12-15T02:55:10.004Z,19
2022-12-15T02:57:40.871Z,24
2022-12-15T03:00:12.040Z,20
2022-12-15T03:02:42.814Z,22
2022-12-15T03:05:13.400Z,20
2022-12-15T03:07:43.947Z,24
2022-12-15T03:10:16.618Z,24
2022-12-15T03:12:47.481Z,24
2022-12-15T03:15:18.340Z,23
2022-12-15T03:17:48.925Z,24
2022-12-15T03:20:20.152Z,20
2022-12-15T03:22:51.005Z,24
2022-12-15T03:25:21.844Z,20
2022-12-15T03:27:51.239Z,23
2022-12-15T03:30:22.076Z,21
2022-12-15T03:32:53.824Z,24
2022-12-15T03:35:26.507Z,20
2022-12-15T03:37:58.335Z,20
2022-12-15T03:40:32.784Z,22
2022-12-15T03:43:03.428Z,20
2022-12-15T03:45:34.162Z,24
2022-12-15T03:48:06.704Z,24
2022-12-15T03:50:37.867Z,24
2022-12-15T03:53:08.794Z,22
2022-12-15T03:55:39.248Z,24
2022-12-15T03:58:10.285Z,20
2022-12-15T04:00:41.757Z,24
2022-12-15T04:03:12.686Z,24
2022-12-15T04:05:44.418Z,23
2022-12-15T04:08:16.105Z,24
2022-12-15T04:10:47.826Z,20
2022-12-15T04:13:18.623Z,21
2022-12-15T04:15:50.347Z,20
2022-12-15T04:18:22.584Z,20
2022-12-15T04:20:53.847Z,20
2022-12-15T04:23:25.554Z,24
2022-12-15T04:25:57.721Z,20
2022-12-15T04:28:28.454Z,21
2022-12-15T04:30:59.174Z,21
2022-12-15T04:33:32.470Z,20
2022-12-15T04:36:03.094Z,20
2022-12-15T04:38:33.822Z,20
2022-12-15T04:41:04.421Z,21
2022-12-15T04:43:35.195Z,19
2022-12-15T04:46:06.454Z,20
2022-12-15T04:48:37.438Z,20
2022-12-15T04:51:08.349Z,21
2022-12-15T04:53:43.355Z,20
2022-12-15T04:56:18.372Z,23
2022-12-15T04:58:46.282Z,20
2022-12-15T05:01:16.578Z,23
2022-12-15T05:03:48.972Z,21
2022-12-15T05:06:19.731Z,20
2022-12-15T05:08:50.371Z,18
2022-12-15T05:11:22.397Z,23
2022-12-15T05:13:53.680Z,19
2022-12-15T05:16:24.972Z,17
2022-12-15T05:18:55.612Z,20
2022-12-15T05:21:26.587Z,20
2022-12-15T05:23:57.764Z,24
2022-12-15T05:26:28.598Z,20
2022-12-15T05:28:59.194Z,24
2022-12-15T05:31:30.218Z,24
2022-12-15T05:34:05.337Z,20
2022-12-15T05:36:33.249Z,23
2022-12-15T05:39:03.819Z,25
2022-12-15T05:41:35.203Z,24
2022-12-15T05:44:05.597Z,24
2022-12-15T05:46:36.810Z,23
2022-12-15T05:49:07.959Z,23
2022-12-15T05:51:38.994Z,20
2022-12-15T05:54:10.240Z,20
2022-12-15T05:56:41.953Z,24
2022-12-15T05:59:16.479Z,22
2022-12-15T06:01:48.109Z,24
2022-12-15T06:04:18.864Z,20
2022-12-15T06:06:51.283Z,20
2022-12-15T06:09:22.412Z,23
2022-12-15T06:11:52.848Z,24
2022-12-15T06:14:21.974Z,24
2022-12-15T06:16:53.625Z,24
2022-12-15T06:19:26.654Z,24
2022-12-15T06:21:59.047Z,24
2022-12-15T06:24:30.228Z,24
2022-12-15T06:27:01.431Z,24
2022-12-15T06:29:32.652Z,24
2022-12-15T06:32:03.597Z,25
2022-12-15T06:34:34.304Z,25
2022-12-15T06:37:04.864Z,32
2022-12-15T06:39:35.857Z,31
2022-12-15T06:42:06.623Z,24
2022-12-15T06:44:37.498Z,24
2022-12-15T06:47:07.848Z,30
2022-12-15T06:49:39.701Z,28
2022-12-15T06:52:10.765Z,28
2022-12-15T06:54:41.583Z,28
2022-12-15T06:57:12.626Z,28
2022-12-15T06:59:47.375Z,28
2022-12-15T07:02:21.164Z,32
2022-12-15T07:04:48.351Z,32
2022-12-15T07:07:20.645Z,32
2022-12-15T07:09:51.210Z,31
2022-12-15T07:12:21.895Z,32
2022-12-15T07:14:53.630Z,32
2022-12-15T07:17:23.412Z,32
2022-12-15T07:19:54.057Z,32
2022-12-15T07:22:24.949Z,32
2022-12-15T07:24:55.262Z,32
2022-12-15T07:27:25.695Z,32
2022-12-15T07:29:56.223Z,36
2022-12-15T07:32:26.366Z,36
2022-12-15T07:34:57.159Z,39
2022-12-15T07:37:28.638Z,36
2022-12-15T07:39:59.478Z,36
2022-12-15T07:42:30.055Z,36
2022-12-15T07:45:00.238Z,35
2022-12-15T07:47:32.365Z,32
2022-12-15T07:50:02.749Z,31
2022-12-15T07:52:34.834Z,32
2022-12-15T07:55:05.412Z,32
2022-12-15T07:57:37.860Z,32
2022-12-15T08:00:11.191Z,32
2022-12-15T08:02:42.345Z,31
2022-12-15T08:05:12.785Z,40
2022-12-15T08:07:43.606Z,46
2022-12-15T08:10:14.219Z,47
2022-12-15T08:12:44.573Z,40
2022-12-15T08:15:15.497Z,40
2022-12-15T08:17:46.042Z,36
2022-12-15T08:20:16.884Z,70
2022-12-15T08:22:49.537Z,40
2022-12-15T08:25:20.006Z,36
2022-12-15T08:27:50.628Z,31
2022-12-15T08:30:21.882Z,32
2022-12-15T08:32:52.567Z,33
2022-12-15T08:35:47.235Z,36
2022-12-15T08:37:53.384Z,32
2022-12-15T08:40:24.327Z,28
2022-12-15T08:42:54.946Z,29
2022-12-15T08:45:24.005Z,28
2022-12-15T08:47:54.787Z,32
2022-12-15T08:50:25.324Z,36
2022-12-15T08:53:21.704Z,32
2022-12-15T08:55:27.551Z,32
2022-12-15T08:57:59.045Z,32
2022-12-15T09:00:30.286Z,29
2022-12-15T09:03:01.509Z,28
2022-12-15T09:05:33.187Z,45
2022-12-15T09:08:06.640Z,36
2022-12-15T09:10:34.536Z,36
2022-12-15T09:13:06.168Z,36
2022-12-15T09:16:07.428Z,38
2022-12-15T09:18:12.014Z,32
2022-12-15T09:20:42.651Z,32
2022-12-15T09:23:14.935Z,28
2022-12-15T09:25:45.450Z,28
2022-12-15T09:28:17.106Z,29
2022-12-15T09:30:47.718Z,30
2022-12-15T09:33:20.183Z,31
2022-12-15T09:35:50.719Z,33
2022-12-15T09:38:21.356Z,32
2022-12-15T09:40:51.855Z,36
2022-12-15T09:43:34.916Z,36
2022-12-15T09:45:52.773Z,32
2022-12-15T09:48:23.098Z,34
2022-12-15T09:50:54.050Z,32
2022-12-15T09:53:53.400Z,32
2022-12-15T09:55:58.707Z,32
2022-12-15T09:58:29.568Z,33
2022-12-15T10:01:01.551Z,32
2022-12-15T10:03:32.628Z,31
2022-12-15T10:06:21.049Z,32
2022-12-15T10:08:33.156Z,32
2022-12-15T10:11:04.749Z,32
2022-12-15T10:13:35.390Z,32
2022-12-15T10:16:06.098Z,28
2022-12-15T10:18:36.842Z,32
2022-12-15T10:21:07.371Z,32
2022-12-15T10:23:37.887Z,28
2022-12-15T10:26:08.405Z,32
2022-12-15T10:28:38.652Z,32
2022-12-15T10:31:09.756Z,32
2022-12-15T10:33:46.984Z,32
2022-12-15T10:36:12.080Z,36
2022-12-15T10:38:44.206Z,32
2022-12-15T10:41:14.869Z,33
2022-12-15T10:43:47.092Z,36
2022-12-15T10:46:17.756Z,32
2022-12-15T10:48:49.089Z,36
2022-12-15T10:51:19.194Z,32
2022-12-15T10:53:50.384Z,37
2022-12-15T10:56:18.413Z,33
2022-12-15T10:58:47.656Z,36
2022-12-15T11:01:19.585Z,36
2022-12-15T11:03:50.455Z,54
2022-12-15T11:06:20.726Z,32
2022-12-15T11:08:52.747Z,28
2022-12-15T11:11:27.285Z,31
2022-12-15T11:13:54.591Z,28
2022-12-15T11:16:25.327Z,28
2022-12-15T11:18:56.167Z,28
2022-12-15T11:21:27.100Z,32
2022-12-15T11:23:57.580Z,28
2022-12-15T11:26:27.812Z,32
2022-12-15T11:28:58.870Z,28
2022-12-15T11:31:35.470Z,28
2022-12-15T11:34:06.138Z,32
2022-12-15T11:36:38.651Z,24
2022-12-15T11:39:09.785Z,28
2022-12-15T11:41:41.572Z,29
2022-12-15T11:44:11.769Z,28
2022-12-15T11:46:45.172Z,28
2022-12-15T11:49:16.301Z,28
2022-12-15T11:51:47.268Z,32
2022-12-15T11:54:18.247Z,32
2022-12-15T11:56:49.049Z,28
2022-12-15T11:59:20.163Z,28
2022-12-15T12:04:21.612Z,32
2022-12-15T12:06:52.774Z,32
2022-12-15T12:09:23.913Z,32
2022-12-15T12:11:54.422Z,32
2022-12-15T12:14:24.683Z,36
2022-12-15T12:16:55.187Z,31
2022-12-15T12:19:27.447Z,31
2022-12-15T12:21:58.380Z,31
2022-12-15T12:24:29.073Z,32
2022-12-15T12:26:59.699Z,31
2022-12-15T12:29:30.449Z,36
2022-12-15T12:32:04.713Z,28
2022-12-15T12:34:31.349Z,28
2022-12-15T12:37:02.265Z,36
2022-12-15T12:39:34.166Z,32
2022-12-15T12:42:04.936Z,36
2022-12-15T12:44:35.476Z,29
2022-12-15T12:47:06.868Z,28
2022-12-15T12:49:37.762Z,28
2022-12-15T12:52:09.699Z,28
2022-12-15T12:54:41.770Z,32
2022-12-15T12:57:13.487Z,31
2022-12-15T12:59:44.276Z,32
2022-12-15T13:02:15.920Z,32
2022-12-15T13:04:46.514Z,28
2022-12-15T13:07:18.213Z,28
2022-12-15T13:09:51.156Z,27
2022-12-15T13:12:50.629Z,28
2022-12-15T13:14:52.772Z,28
2022-12-15T13:17:27.123Z,28
2022-12-15T13:19:55.834Z,36
2022-12-15T13:22:27.225Z,32
2022-12-15T13:24:58.653Z,32
2022-12-15T13:27:31.723Z,44
2022-12-15T13:30:04.194Z,36
2022-12-15T13:32:36.011Z,36
2022-12-15T13:35:06.400Z,34
2022-12-15T13:37:37.546Z,32
2022-12-15T13:40:08.511Z,32
2022-12-15T13:42:52.841Z,33
2022-12-15T13:45:11.776Z,34
2022-12-15T13:47:43.713Z,28
2022-12-15T13:50:15.365Z,28
2022-12-15T13:55:22.656Z,28
2022-12-15T13:57:50.393Z,28
2022-12-15T14:00:21.844Z,26
2022-12-15T14:02:53.337Z,32
2022-12-15T14:05:24.830Z,32
2022-12-15T14:07:56.295Z,32
2022-12-15T14:10:27.385Z,36
2022-12-15T14:12:59.020Z,36
2022-12-15T14:15:30.002Z,35
2022-12-15T14:18:00.952Z,34
2022-12-15T14:20:32.194Z,32
2022-12-15T14:23:03.805Z,28
2022-12-15T14:25:36.028Z,32
2022-12-15T14:28:12.142Z,32
2022-12-15T14:30:41.472Z,28
2022-12-15T14:33:12.771Z,32
2022-12-15T14:35:44.933Z,32
2022-12-15T14:38:17.299Z,35
2022-12-15T14:40:49.484Z,36
2022-12-15T14:43:20.833Z,36
2022-12-15T14:45:51.936Z,36
2022-12-15T14:50:55.760Z,50
2022-12-15T14:53:27.181Z,53
2022-12-15T14:55:58.931Z,52
2022-12-15T14:58:31.285Z,52
2022-12-15T15:01:01.853Z,44
2022-12-15T15:03:08.728Z,33
2022-12-15T15:03:33.626Z,48
2022-12-15T15:06:05.446Z,49
2022-12-15T15:08:37.047Z,44
2022-12-15T15:11:06.600Z,52
2022-12-15T15:13:39.942Z,52
2022-12-15T15:16:10.474Z,72
2022-12-15T15:18:42.061Z,79
2022-12-15T15:21:14.924Z,83
2022-12-15T15:23:46.679Z,53
2022-12-15T15:26:17.888Z,52
2022-12-15T15:28:49.182Z,49
2022-12-15T15:31:21.107Z,49
2022-12-15T15:33:52.459Z,64
2022-12-15T15:36:24.222Z,46
2022-12-15T15:38:55.981Z,44
2022-12-15T15:41:27.017Z,44
2022-12-15T15:43:59.180Z,40
2022-12-15T15:46:30.416Z,47
2022-12-15T15:49:01.565Z,57
2022-12-15T15:51:33.062Z,52
2022-12-15T15:54:04.472Z,56
2022-12-15T15:56:35.575Z,56
2022-12-15T15:59:08.853Z,56
2022-12-15T16:01:38.213Z,58
2022-12-15T16:04:10.995Z,55
2022-12-15T16:06:47.197Z,48
2022-12-15T16:09:13.852Z,53
2022-12-15T16:11:46.640Z,52
2022-12-15T16:14:19.344Z,60
2022-12-15T16:16:50.217Z,80
2022-12-15T16:19:21.646Z,76
2022-12-15T16:21:53.875Z,77
2022-12-15T16:24:25.181Z,77
2022-12-15T16:26:56.133Z,80
2022-12-15T16:29:30.200Z,80
2022-12-15T16:32:02.321Z,87
2022-12-15T16:34:33.206Z,84
2022-12-15T16:37:06.301Z,80
2022-12-15T16:39:39.567Z,88
2022-12-15T16:42:11.117Z,84
2022-12-15T16:44:42.227Z,86
2022-12-15T16:47:13.973Z,88
2022-12-15T16:49:45.107Z,85
2022-12-15T16:52:15.966Z,83
2022-12-15T16:54:47.305Z,79
2022-12-15T16:57:18.711Z,75
2022-12-15T16:59:51.500Z,76
2022-12-15T17:02:23.994Z,80
2022-12-15T17:04:55.609Z,78
2022-12-15T17:07:26.757Z,88
2022-12-15T17:09:58.650Z,86
2022-12-15T17:12:31.248Z,89
2022-12-15T17:15:02.783Z,92
2022-12-15T17:17:34.129Z,94
2022-12-15T17:22:37.491Z,104
2022-12-15T17:25:08.741Z,104
2022-12-15T17:27:39.977Z,100
2022-12-15T17:30:11.188Z,103
2022-12-15T17:32:42.207Z,116
2022-12-15T17:35:14.407Z,135
2022-12-15T17:37:45.772Z,141
2022-12-15T17:40:19.900Z,138
2022-12-15T17:42:51.345Z,120
2022-12-15T17:45:23.885Z,128
2022-12-15T17:47:55.680Z,113
2022-12-15T17:50:26.837Z,95
2022-12-15T17:52:58.936Z,91
2022-12-15T17:55:34.942Z,88
2022-12-15T17:58:02.645Z,89
2022-12-15T18:00:33.992Z,106
2022-12-15T18:03:07.668Z,107
2022-12-15T18:05:39.767Z,112
2022-12-15T18:08:11.213Z,108
2022-12-15T18:10:42.414Z,114
2022-12-15T18:13:14.042Z,116
2022-12-15T18:15:45.124Z,124
2022-12-15T18:18:16.133Z,116
2022-12-15T18:20:47.445Z,78
2022-12-15T18:23:19.208Z,76
2022-12-15T18:25:50.536Z,95
2022-12-15T18:28:21.463Z,127
2022-12-15T18:30:52.629Z,165
2022-12-15T18:33:23.818Z,168
2022-12-15T18:35:59.986Z,152
2022-12-15T18:38:31.515Z,147
2022-12-15T18:41:02.900Z,157
2022-12-15T18:43:35.591Z,140
2022-12-15T18:46:06.893Z,132
2022-12-15T18:48:38.108Z,121
2022-12-15T18:51:10.183Z,108
2022-12-15T18:53:41.961Z,109
2022-12-15T18:56:11.705Z,105
2022-12-15T18:58:44.895Z,109
2022-12-15T19:01:16.499Z,120
2022-12-15T19:03:48.638Z,121
2022-12-15T19:06:24.046Z,132
2022-12-15T19:08:51.162Z,124
2022-12-15T19:11:23.153Z,117
2022-12-15T19:13:53.991Z,130
2022-12-15T19:16:25.336Z,123
2022-12-15T19:18:56.701Z,120
2022-12-15T19:21:27.474Z,127
2022-12-15T19:23:59.708Z,140
2022-12-15T19:26:31.080Z,191
2022-12-15T19:29:00.540Z,189
2022-12-15T19:31:31.942Z,189
2022-12-15T19:34:03.233Z,192
2022-12-15T19:36:36.793Z,189
2022-12-15T19:39:05.708Z,152
2022-12-15T19:41:37.558Z,154
2022-12-15T19:44:08.714Z,132
2022-12-15T19:46:39.669Z,131
2022-12-15T19:49:12.606Z,132
2022-12-15T19:51:44.171Z,106
2022-12-15T19:54:17.078Z,101
2022-12-15T19:56:48.502Z,104
2022-12-15T19:59:20.417Z,92
2022-12-15T20:01:51.860Z,94
2022-12-15T20:04:24.432Z,80
2022-12-15T20:06:54.454Z,88
2022-12-15T20:09:25.554Z,151
2022-12-15T20:11:56.739Z,188
2022-12-15T20:14:28.797Z,189
2022-12-15T20:17:01.223Z,185
2022-12-15T20:19:32.487Z,180
2022-12-15T20:22:04.977Z,162
2022-12-15T20:24:36.904Z,168
2022-12-15T20:27:11.723Z,156
2022-12-15T20:29:39.451Z,84
2022-12-15T20:32:10.818Z,128
2022-12-15T20:34:45.875Z,135
2022-12-15T20:37:18.509Z,127
2022-12-15T20:39:57.089Z,110
2022-12-15T20:42:23.332Z,98
2022-12-15T20:44:55.885Z,76
2022-12-15T20:47:27.175Z,68
2022-12-15T20:52:36.929Z,60
2022-12-15T20:55:09.333Z,49
2022-12-15T20:57:41.646Z,49
2022-12-15T21:02:51.852Z,44
2022-12-15T21:05:23.387Z,48
2022-12-15T21:07:55.646Z,50
2022-12-15T21:10:27.129Z,44
2022-12-15T21:12:56.931Z,50
2022-12-15T21:15:29.289Z,46
2022-12-15T21:18:29.428Z,36
2022-12-15T21:20:34.160Z,44
2022-12-15T21:23:05.804Z,34
2022-12-15T21:25:37.217Z,36
2022-12-15T21:28:08.540Z,56
2022-12-15T21:30:39.747Z,41
2022-12-15T21:33:11.160Z,32
2022-12-15T21:35:43.660Z,32
2022-12-15T21:38:17.243Z,32
2022-12-15T21:40:54.562Z,30
2022-12-15T21:43:22.157Z,32
2022-12-15T21:45:53.752Z,28
2022-12-15T21:51:02.738Z,28
2022-12-15T21:53:34.346Z,32
2022-12-15T21:56:06.412Z,32
2022-12-15T21:58:39.077Z,24
2022-12-15T22:01:10.374Z,28
2022-12-15T22:03:41.915Z,25
2022-12-15T22:06:14.318Z,26
2022-12-15T22:08:45.640Z,28
2022-12-15T22:11:17.495Z,24
2022-12-15T22:13:52.061Z,30
2022-12-15T22:16:23.567Z,28
2022-12-15T22:18:55.852Z,28
2022-12-15T22:21:27.053Z,24
2022-12-15T22:23:58.947Z,28
2022-12-15T22:26:31.707Z,25
2022-12-15T22:29:03.223Z,27
2022-12-15T22:31:34.579Z,24
2022-12-15T22:34:05.776Z,28
2022-12-15T22:36:37.459Z,24
2022-12-15T22:39:08.576Z,28
2022-12-15T22:41:39.855Z,24
2022-12-15T22:44:12.294Z,28
2022-12-15T22:46:45.026Z,26
2022-12-15T22:49:16.622Z,28
2022-12-15T22:51:48.713Z,28
2022-12-15T22:54:19.758Z,28
2022-12-15T22:56:51.354Z,28
2022-12-15T22:59:22.919Z,24
2022-12-15T23:01:54.609Z,27
2022-12-15T23:04:26.042Z,27
2022-12-15T23:07:00.039Z,25
2022-12-15T23:12:27.737Z,28
2022-12-15T23:15:10.320Z,27
2022-12-15T23:17:49.982Z,24
2022-12-15T23:20:22.165Z,24
2022-12-15T23:23:00.748Z,25
2022-12-15T23:25:36.298Z,26
2022-12-15T23:28:15.472Z,26
2022-12-15T23:30:49.168Z,28
2022-12-15T23:33:29.130Z,25
2022-12-15T23:36:02.514Z,28
2022-12-15T23:38:40.179Z,28
2022-12-15T23:41:10.984Z,24
2022-12-15T23:43:40.077Z,26
2022-12-15T23:46:11.094Z,25
2022-12-15T23:48:41.652Z,28
2022-12-15T23:51:12.607Z,28
2022-12-15T23:53:43.983Z,24
2022-12-15T23:56:14.920Z,28
2022-12-15T23:58:45.662Z,24
